createdAt,value
2018-07-09T00:00:14.292Z,95684.88
2018-07-09T00:02:43.609Z,95683.03
2018-07-09T00:05:12.924Z,95682.75
2018-07-09T00:07:42.236Z,95681.91
2018-07-09T00:10:12.846Z,95680.58
2018-07-09T00:12:42.282Z,95681.11
2018-07-09T00:15:11.590Z,95682.23
2018-07-09T00:17:40.904Z,95685.61
2018-07-09T00:20:10.229Z,95676.88
2018-07-09T00:22:39.512Z,95676.13
2018-07-09T00:25:08.867Z,95671.87
2018-07-09T00:27:38.186Z,95674.83
2018-07-09T00:30:07.530Z,95673.02
2018-07-09T00:32:36.857Z,95676.73
2018-07-09T00:35:06.205Z,95674.44
2018-07-09T00:37:35.789Z,95668.44
2018-07-09T00:40:05.636Z,95670.55
2018-07-09T00:42:35.486Z,95668.67
2018-07-09T00:45:04.843Z,95668.95
2018-07-09T00:47:34.289Z,95666.05
2018-07-09T00:50:03.606Z,95659.80
2018-07-09T00:52:32.924Z,95661.35
2018-07-09T00:55:02.468Z,95665.02
2018-07-09T00:57:31.904Z,95661.63
2018-07-09T01:00:01.290Z,95665.28
2018-07-09T01:02:30.705Z,95664.52
2018-07-09T01:05:00.086Z,95662.13
2018-07-09T01:07:29.414Z,95663.86
2018-07-09T01:09:58.798Z,95661.05
2018-07-09T01:12:28.201Z,95663.70
2018-07-09T01:14:57.555Z,95665.52
2018-07-09T01:17:26.903Z,95663.44
2018-07-09T01:19:56.394Z,95661.86
2018-07-09T01:22:25.736Z,95665.55
2018-07-09T01:24:55.028Z,95661.64
2018-07-09T01:27:24.387Z,95666.81
2018-07-09T01:29:53.656Z,95664.74
2018-07-09T01:32:22.932Z,95666.50
2018-07-09T01:34:52.239Z,95664.18
2018-07-09T01:37:21.525Z,95662.14
2018-07-09T01:39:50.868Z,95654.84
2018-07-09T01:42:20.144Z,95655.35
2018-07-09T01:44:49.457Z,95657.42
2018-07-09T01:47:18.706Z,95653.79
2018-07-09T01:49:48.010Z,95654.30
2018-07-09T01:52:17.345Z,95654.57
2018-07-09T01:54:46.654Z,95656.41
2018-07-09T01:57:15.926Z,95649.64
2018-07-09T01:59:45.292Z,95649.37
2018-07-09T02:02:14.565Z,95653.78
2018-07-09T02:04:43.862Z,95646.97
2018-07-09T02:07:13.146Z,95648.26
2018-07-09T02:09:42.482Z,95645.31
2018-07-09T02:12:11.767Z,95641.95
2018-07-09T02:14:41.090Z,95640.94
2018-07-09T02:17:10.361Z,95636.25
2018-07-09T02:19:39.630Z,95641.34
2018-07-09T02:22:08.996Z,95644.01
2018-07-09T02:24:38.251Z,95636.27
2018-07-09T02:27:07.648Z,95640.38
2018-07-09T02:29:36.925Z,95646.36
2018-07-09T02:32:06.315Z,95641.98
2018-07-09T02:34:35.658Z,95640.91
2018-07-09T02:37:05.026Z,95638.50
2018-07-09T02:39:34.392Z,95641.32
2018-07-09T02:42:03.697Z,95634.37
2018-07-09T02:44:32.989Z,95629.84
2018-07-09T02:47:02.269Z,95626.22
2018-07-09T02:49:31.661Z,95629.36
2018-07-09T02:52:01.009Z,95626.30
2018-07-09T02:54:30.327Z,95628.17
2018-07-09T02:56:59.658Z,95626.61
2018-07-09T02:59:28.961Z,95627.63
2018-07-09T03:01:58.292Z,95627.10
2018-07-09T03:04:27.638Z,95630.97
2018-07-09T03:06:57.145Z,95633.63
2018-07-09T03:09:26.444Z,95629.95
2018-07-09T03:11:55.800Z,95620.81
2018-07-09T03:14:25.124Z,95628.02
2018-07-09T03:16:54.412Z,95634.11
2018-07-09T03:19:23.770Z,95634.91
2018-07-09T03:21:53.096Z,95637.41
2018-07-09T03:24:22.419Z,95634.10
2018-07-09T03:26:51.706Z,95639.13
2018-07-09T03:29:21.026Z,95641.84
2018-07-09T03:31:50.388Z,95632.35
2018-07-09T03:34:19.718Z,95644.91
2018-07-09T03:36:49.054Z,95639.16
2018-07-09T03:39:18.375Z,95642.50
2018-07-09T03:41:47.702Z,95643.94
2018-07-09T03:44:17.074Z,95643.02
2018-07-09T03:46:46.385Z,95640.57
2018-07-09T03:49:15.733Z,95640.38
2018-07-09T03:51:45.051Z,95630.28
2018-07-09T03:54:14.363Z,95627.94
2018-07-09T03:56:43.684Z,95619.34
2018-07-09T03:59:12.975Z,95630.79
2018-07-09T04:01:42.316Z,95624.29
2018-07-09T04:04:11.647Z,95621.66
2018-07-09T04:06:40.957Z,95624.02
2018-07-09T04:09:10.258Z,95625.75
2018-07-09T04:11:39.578Z,95634.89
2018-07-09T04:14:08.979Z,95633.32
2018-07-09T04:16:38.312Z,95631.23
2018-07-09T04:19:07.625Z,95628.88
2018-07-09T04:21:37.004Z,95631.44
2018-07-09T04:24:06.391Z,95636.11
2018-07-09T04:26:35.726Z,95634.72
2018-07-09T04:29:05.018Z,95633.72
2018-07-09T04:31:34.310Z,95637.66
2018-07-09T04:34:03.690Z,95640.01
2018-07-09T04:36:33.060Z,95631.44
2018-07-09T04:39:02.554Z,95627.91
2018-07-09T04:41:31.836Z,95633.17
2018-07-09T04:44:01.123Z,95637.11
2018-07-09T04:46:30.453Z,95637.00
2018-07-09T04:49:00.034Z,95637.68
2018-07-09T04:51:29.499Z,95633.31
2018-07-09T04:53:58.909Z,95631.56
2018-07-09T04:56:28.463Z,95635.53
2018-07-09T04:58:57.794Z,95635.52
2018-07-09T05:01:27.108Z,95645.47
2018-07-09T05:03:56.441Z,95653.42
2018-07-09T05:06:25.723Z,95647.55
2018-07-09T05:08:54.994Z,95654.09
2018-07-09T05:11:24.364Z,95651.51
2018-07-09T05:13:53.684Z,95652.06
2018-07-09T05:16:23.097Z,95651.39
2018-07-09T05:18:52.416Z,95658.73
2018-07-09T05:21:21.778Z,95662.97
2018-07-09T05:23:51.098Z,95653.88
2018-07-09T05:26:20.458Z,95652.42
2018-07-09T05:28:49.844Z,95648.92
2018-07-09T05:31:19.190Z,95654.00
2018-07-09T05:33:48.591Z,95653.38
2018-07-09T05:36:17.893Z,95654.59
2018-07-09T05:38:47.282Z,95657.30
2018-07-09T05:41:16.650Z,95660.02
2018-07-09T05:43:45.995Z,95660.05
2018-07-09T05:46:15.296Z,95664.02
2018-07-09T05:48:44.653Z,95659.56
2018-07-09T05:51:14.042Z,95658.29
2018-07-09T05:53:43.397Z,95647.83
2018-07-09T05:56:12.743Z,95651.44
2018-07-09T05:58:42.108Z,95652.64
2018-07-09T06:01:11.588Z,95650.30
2018-07-09T06:03:40.956Z,95646.63
2018-07-09T06:06:10.282Z,95651.00
2018-07-09T06:08:39.738Z,95649.31
2018-07-09T06:11:09.065Z,95652.17
2018-07-09T06:13:38.486Z,95651.27
2018-07-09T06:16:07.744Z,95652.89
2018-07-09T06:18:37.138Z,95655.97
2018-07-09T06:21:06.620Z,95653.58
2018-07-09T06:23:35.948Z,95657.38
2018-07-09T06:26:05.363Z,95652.20
2018-07-09T06:28:34.811Z,95645.39
2018-07-09T06:31:04.141Z,95645.24
2018-07-09T06:33:33.578Z,95650.16
2018-07-09T06:36:02.901Z,95648.16
2018-07-09T06:38:33.019Z,95643.91
2018-07-09T06:41:02.372Z,95644.36
2018-07-09T06:43:31.721Z,95639.63
2018-07-09T06:46:01.106Z,95649.77
2018-07-09T06:48:30.407Z,95645.80
2018-07-09T06:50:59.751Z,95652.23
2018-07-09T06:53:29.076Z,95645.72
2018-07-09T06:55:58.483Z,95644.40
2018-07-09T06:58:27.887Z,95647.95
2018-07-09T07:00:57.193Z,95646.34
2018-07-09T07:03:27.530Z,95655.64
2018-07-09T07:05:56.852Z,95647.70
2018-07-09T07:08:26.230Z,95655.66
2018-07-09T07:10:55.758Z,95651.33
2018-07-09T07:13:26.029Z,95646.34
2018-07-09T07:15:55.364Z,95657.56
2018-07-09T07:18:24.783Z,95651.02
2018-07-09T07:20:54.076Z,95655.56
2018-07-09T07:23:23.416Z,95653.28
2018-07-09T07:25:52.751Z,95658.06
2018-07-09T07:28:22.144Z,95654.24
2018-07-09T07:30:51.437Z,95658.64
2018-07-09T07:33:20.757Z,95652.36
2018-07-09T07:35:50.024Z,95652.92
2018-07-09T07:40:57.553Z,95642.13
2018-07-09T07:43:26.981Z,95646.48
2018-07-09T07:45:56.364Z,95646.73
2018-07-09T07:48:25.776Z,95652.58
2018-07-09T07:50:55.128Z,95651.23
2018-07-09T07:53:24.451Z,95652.89
2018-07-09T07:55:53.801Z,95660.58
2018-07-09T07:58:23.216Z,95657.16
2018-07-09T08:00:52.624Z,95656.52
2018-07-09T08:03:22.009Z,95660.46
2018-07-09T08:05:51.747Z,95654.34
2018-07-09T08:08:21.069Z,95661.07
2018-07-09T08:10:50.429Z,95655.47
2018-07-09T08:13:28.997Z,95656.48
2018-07-09T08:15:49.151Z,95658.72
2018-07-09T08:18:18.543Z,95652.74
2018-07-09T08:20:47.844Z,95650.50
2018-07-09T08:23:17.191Z,95659.23
2018-07-09T08:25:46.630Z,95653.81
2018-07-09T08:28:15.964Z,95643.28
2018-07-09T08:30:45.389Z,95645.80
2018-07-09T08:33:14.710Z,95649.72
2018-07-09T08:35:44.120Z,95647.56
2018-07-09T08:38:13.484Z,95642.19
2018-07-09T08:40:42.888Z,95642.06
2018-07-09T08:43:12.244Z,95643.94
2018-07-09T08:45:41.754Z,95636.36
2018-07-09T08:48:11.168Z,95636.87
2018-07-09T08:50:40.476Z,95633.09
2018-07-09T08:53:09.810Z,95639.31
2018-07-09T08:55:39.178Z,95642.30
2018-07-09T08:58:08.563Z,95637.73
2018-07-09T09:00:37.955Z,95636.52
2018-07-09T09:03:07.404Z,95634.16
2018-07-09T09:05:36.798Z,95634.30
2018-07-09T09:08:06.175Z,95647.62
2018-07-09T09:10:35.498Z,95652.44
2018-07-09T09:13:04.881Z,95644.20
2018-07-09T09:15:34.292Z,95652.75
2018-07-09T09:18:03.644Z,95643.70
2018-07-09T09:20:32.970Z,95648.57
2018-07-09T09:23:02.288Z,95642.39
2018-07-09T09:25:31.748Z,95641.48
2018-07-09T09:28:01.042Z,95639.31
2018-07-09T09:30:30.415Z,95638.22
2018-07-09T09:32:59.907Z,95637.33
2018-07-09T09:35:29.269Z,95632.66
2018-07-09T09:37:58.682Z,95633.50
2018-07-09T09:40:28.023Z,95631.71
2018-07-09T09:42:57.369Z,95631.13
2018-07-09T09:45:26.730Z,95622.45
2018-07-09T09:47:56.108Z,95623.16
2018-07-09T09:50:25.435Z,95618.87
2018-07-09T09:52:54.746Z,95618.03
2018-07-09T09:55:24.037Z,95618.11
2018-07-09T09:57:53.321Z,95621.67
2018-07-09T10:00:26.819Z,95616.55
2018-07-09T10:02:56.114Z,95606.93
2018-07-09T10:05:25.487Z,95615.69
2018-07-09T10:07:54.770Z,95610.22
2018-07-09T10:10:24.079Z,95603.84
2018-07-09T10:12:53.436Z,95604.07
2018-07-09T10:15:22.763Z,95607.06
2018-07-09T10:17:52.079Z,95598.24
2018-07-09T10:20:21.450Z,95596.38
2018-07-09T10:22:50.878Z,95603.10
2018-07-09T10:25:20.204Z,95605.91
2018-07-09T10:27:49.591Z,95614.48
2018-07-09T10:30:19.045Z,95608.58
2018-07-09T10:32:48.399Z,95615.98
2018-07-09T10:35:17.737Z,95612.27
2018-07-09T10:37:48.060Z,95611.45
2018-07-09T10:40:17.387Z,95606.42
2018-07-09T10:42:46.769Z,95611.90
2018-07-09T10:45:16.152Z,95623.70
2018-07-09T10:47:45.544Z,95628.04
2018-07-09T10:50:14.896Z,95622.83
2018-07-09T10:52:44.262Z,95615.09
2018-07-09T10:55:13.755Z,95613.67
2018-07-09T10:57:43.186Z,95604.31
2018-07-09T11:00:12.546Z,95602.83
2018-07-09T11:02:41.877Z,95596.63
2018-07-09T11:05:11.262Z,95598.89
2018-07-09T11:07:40.651Z,95603.44
2018-07-09T11:10:09.983Z,95614.02
2018-07-09T11:12:40.416Z,95618.55
2018-07-09T11:15:09.746Z,95610.82
2018-07-09T11:17:39.104Z,95604.49
2018-07-09T11:20:08.449Z,95606.52
2018-07-09T11:22:37.779Z,95601.97
2018-07-09T11:25:07.237Z,95602.87
2018-07-09T11:27:36.654Z,95599.91
2018-07-09T11:30:06.090Z,95602.98
2018-07-09T11:32:35.497Z,95598.22
2018-07-09T11:35:04.870Z,95599.03
2018-07-09T11:37:34.248Z,95596.34
2018-07-09T11:40:03.620Z,95597.88
2018-07-09T11:42:33.037Z,95599.53
2018-07-09T11:45:02.394Z,95594.09
2018-07-09T11:47:31.733Z,95598.52
2018-07-09T11:50:01.093Z,95589.88
2018-07-09T11:55:10.308Z,95594.56
2018-07-09T11:57:39.757Z,95595.35
2018-07-09T12:00:09.552Z,95597.77
2018-07-09T12:02:39.034Z,95594.63
2018-07-09T12:05:08.843Z,95595.81
2018-07-09T12:07:38.260Z,95599.41
2018-07-09T12:10:07.776Z,95588.41
2018-07-09T12:12:37.322Z,95588.98
2018-07-09T12:15:06.746Z,95587.20
2018-07-09T12:17:36.259Z,95594.78
2018-07-09T12:20:05.720Z,95587.21
2018-07-09T12:22:35.114Z,95590.78
2018-07-09T12:25:04.937Z,95589.00
2018-07-09T12:27:34.347Z,95589.66
2018-07-09T12:30:03.806Z,95585.58
2018-07-09T12:32:33.109Z,95584.53
2018-07-09T12:35:03.898Z,95585.48
2018-07-09T12:37:33.551Z,95591.88
2018-07-09T12:40:03.044Z,95598.73
2018-07-09T12:42:32.407Z,95587.03
2018-07-09T12:45:02.125Z,95597.22
2018-07-09T12:47:31.501Z,95581.53
2018-07-09T12:50:00.998Z,95583.83
2018-07-09T12:52:30.460Z,95588.87
2018-07-09T12:54:59.973Z,95587.14
2018-07-09T12:57:29.404Z,95592.81
2018-07-09T12:59:58.808Z,95597.64
2018-07-09T13:02:28.252Z,95596.93
2018-07-09T13:04:57.816Z,95590.21
2018-07-09T13:07:27.196Z,95591.70
2018-07-09T13:09:56.600Z,95585.77
2018-07-09T13:12:28.201Z,95593.00
2018-07-09T13:14:59.500Z,95603.98
2018-07-09T13:17:28.983Z,95602.17
2018-07-09T13:19:58.437Z,95603.68
2018-07-09T13:22:27.909Z,95602.20
2018-07-09T13:24:57.432Z,95602.09
2018-07-09T13:27:26.818Z,95595.52
2018-07-09T13:29:56.371Z,95592.95
2018-07-09T13:32:26.199Z,95594.19
2018-07-09T13:34:56.210Z,95591.98
2018-07-09T13:37:25.774Z,95588.31
2018-07-09T13:39:55.379Z,95596.75
2018-07-09T13:42:24.948Z,95596.48
2018-07-09T13:44:54.431Z,95594.70
2018-07-09T13:47:24.059Z,95594.81
2018-07-09T13:49:53.818Z,95602.38
2018-07-09T13:52:23.298Z,95595.33
2018-07-09T13:54:52.810Z,95595.92
2018-07-09T13:57:22.344Z,95595.01
2018-07-09T13:59:51.813Z,95588.89
2018-07-09T14:02:21.351Z,95588.02
2018-07-09T14:04:51.194Z,95583.58
2018-07-09T14:07:20.760Z,95584.02
2018-07-09T14:09:50.169Z,95574.59
2018-07-09T14:12:19.527Z,95577.36
2018-07-09T14:14:48.967Z,95565.45
2018-07-09T14:17:18.444Z,95559.98
2018-07-09T14:20:25.200Z,95563.38
2018-07-09T14:22:54.624Z,95551.67
2018-07-09T14:25:24.288Z,95549.32
2018-07-09T14:27:54.027Z,95552.74
2018-07-09T14:30:23.685Z,95553.25
2018-07-09T14:32:53.028Z,95551.40
2018-07-09T14:35:22.591Z,95553.16
2018-07-09T14:37:52.428Z,95548.16
2018-07-09T14:40:21.830Z,95537.95
2018-07-09T14:42:52.461Z,95534.05
2018-07-09T14:45:21.958Z,95521.57
2018-07-09T14:47:51.432Z,95516.45
2018-07-09T14:50:20.820Z,95507.47
2018-07-09T14:52:50.244Z,95495.95
2018-07-09T14:55:20.750Z,95496.79
2018-07-09T14:57:50.569Z,95493.91
2018-07-09T15:00:20.031Z,95495.57
2018-07-09T15:02:49.622Z,95493.92
2018-07-09T15:05:20.080Z,95492.28
2018-07-09T15:07:49.713Z,95491.01
2018-07-09T15:10:31.309Z,95487.81
2018-07-09T15:13:04.205Z,95485.81
2018-07-09T15:15:39.913Z,95473.50
2018-07-09T15:18:16.142Z,95478.22
2018-07-09T15:20:49.026Z,95484.73
2018-07-09T15:23:24.302Z,95472.97
2018-07-09T15:25:56.862Z,95473.59
2018-07-09T15:28:31.459Z,95466.55
2018-07-09T15:31:05.060Z,95464.95
2018-07-09T15:33:48.283Z,95461.11
2018-07-09T15:36:22.619Z,95458.84
2018-07-09T15:38:54.390Z,95456.63
2018-07-09T15:44:06.717Z,95453.92
2018-07-09T15:46:44.298Z,95457.69
2018-07-09T15:49:17.091Z,95453.86
2018-07-09T15:51:46.538Z,95442.66
2018-07-09T15:54:15.885Z,95446.34
2018-07-09T15:56:45.325Z,95442.14
2018-07-09T15:59:14.730Z,95446.45
2018-07-09T16:01:44.086Z,95434.13
2018-07-09T16:04:13.535Z,95437.44
2018-07-09T16:06:42.864Z,95437.50
2018-07-09T16:09:12.185Z,95433.29
2018-07-09T16:11:41.653Z,95433.29
2018-07-09T16:14:11.030Z,95432.67
2018-07-09T16:16:40.468Z,95430.70
2018-07-09T16:19:09.834Z,95435.91
2018-07-09T16:21:39.221Z,95427.06
2018-07-09T16:24:08.646Z,95427.72
2018-07-09T16:26:38.006Z,95420.05
2018-07-09T16:29:07.419Z,95425.60
2018-07-09T16:31:36.746Z,95421.14
2018-07-09T16:34:06.113Z,95416.20
2018-07-09T16:36:35.511Z,95411.38
2018-07-09T16:39:05.981Z,95402.17
2018-07-09T16:41:35.734Z,95400.02
2018-07-09T16:44:05.168Z,95405.78
2018-07-09T16:46:34.513Z,95403.66
2018-07-09T16:49:04.071Z,95403.70
2018-07-09T16:51:33.533Z,95390.40
2018-07-09T16:54:03.572Z,95395.97
2018-07-09T16:56:33.067Z,95395.88
2018-07-09T16:59:02.480Z,95393.62
2018-07-09T17:01:31.970Z,95387.61
2018-07-09T17:04:01.369Z,95387.16
2018-07-09T17:06:30.847Z,95385.16
2018-07-09T17:09:00.340Z,95380.92
2018-07-09T17:11:29.797Z,95382.06
2018-07-09T17:13:59.297Z,95376.13
2018-07-09T17:16:28.821Z,95376.44
2018-07-09T17:18:58.276Z,95376.63
2018-07-09T17:21:27.757Z,95383.66
2018-07-09T17:23:57.172Z,95381.61
2018-07-09T17:26:26.646Z,95385.50
2018-07-09T17:28:56.011Z,95391.27
2018-07-09T17:31:25.395Z,95382.31
2018-07-09T17:33:54.786Z,95392.73
2018-07-09T17:36:24.176Z,95393.36
2018-07-09T17:38:53.748Z,95402.21
2018-07-09T17:41:23.066Z,95397.45
2018-07-09T17:43:52.523Z,95394.78
2018-07-09T17:46:21.861Z,95399.07
2018-07-09T17:48:51.225Z,95394.97
2018-07-09T17:51:20.549Z,95390.91
2018-07-09T17:53:49.981Z,95386.02
2018-07-09T17:56:19.310Z,95391.80
2018-07-09T17:58:48.757Z,95385.97
2018-07-09T18:01:18.475Z,95397.24
2018-07-09T18:03:48.331Z,95400.35
2018-07-09T18:06:17.679Z,95396.42
2018-07-09T18:08:47.072Z,95389.63
2018-07-09T18:11:16.437Z,95392.14
2018-07-09T18:13:45.798Z,95402.36
2018-07-09T18:16:15.293Z,95393.20
2018-07-09T18:18:44.771Z,95397.92
2018-07-09T18:21:14.198Z,95402.77
2018-07-09T18:23:43.608Z,95395.48
2018-07-09T18:26:13.047Z,95387.33
2018-07-09T18:28:42.457Z,95373.38
2018-07-09T18:31:12.194Z,95379.09
2018-07-09T18:33:41.547Z,95374.58
2018-07-09T18:36:11.040Z,95369.11
2018-07-09T18:38:40.763Z,95367.66
2018-07-09T18:41:10.164Z,95359.41
2018-07-09T18:43:39.689Z,95356.66
2018-07-09T18:46:09.142Z,95356.98
2018-07-09T18:48:38.523Z,95348.05
2018-07-09T18:51:08.014Z,95352.77
2018-07-09T18:53:37.390Z,95354.00
2018-07-09T18:56:06.892Z,95346.52
2018-07-09T18:58:36.360Z,95349.02
2018-07-09T19:01:05.794Z,95353.21
2018-07-09T19:03:35.157Z,95350.84
2018-07-09T19:07:11.861Z,95343.56
2018-07-09T19:09:41.337Z,95343.75
2018-07-09T19:12:10.836Z,95349.19
2018-07-09T19:14:44.231Z,95347.64
2018-07-09T19:18:28.820Z,95340.52
2018-07-09T19:21:36.495Z,95338.72
2018-07-09T19:24:06.070Z,95338.20
2018-07-09T19:26:34.444Z,95337.45
2018-07-09T19:29:03.284Z,95340.44
2018-07-09T19:31:31.621Z,95336.16
2018-07-09T19:34:00.017Z,95327.41
2018-07-09T19:36:28.396Z,95319.92
2018-07-09T19:38:56.614Z,95317.13
2018-07-09T19:41:24.889Z,95322.88
2018-07-09T19:43:53.252Z,95320.14
2018-07-09T19:46:21.585Z,95315.55
2018-07-09T19:48:49.777Z,95325.56
2018-07-09T19:51:18.013Z,95332.69
2018-07-09T19:53:46.242Z,95342.80
2018-07-09T19:56:14.502Z,95347.70
2018-07-09T19:58:42.880Z,95352.50
2018-07-09T20:01:11.141Z,95357.34
2018-07-09T20:03:39.399Z,95355.56
2018-07-09T20:06:07.611Z,95351.14
2018-07-09T20:08:41.035Z,95349.38
2018-07-09T20:11:14.377Z,95353.80
2018-07-09T20:14:13.663Z,95355.55
2018-07-09T20:16:47.163Z,95356.24
2018-07-09T20:19:15.432Z,95345.13
2018-07-09T20:21:43.654Z,95341.67
2018-07-09T20:24:11.878Z,95335.89
2018-07-09T20:26:40.069Z,95332.44
2018-07-09T20:29:08.333Z,95339.30
2018-07-09T20:31:36.584Z,95339.45
2018-07-09T20:34:04.813Z,95334.58
2018-07-09T20:36:33.140Z,95339.73
2018-07-09T20:39:01.405Z,95338.70
2018-07-09T20:41:29.689Z,95344.00
2018-07-09T20:43:57.922Z,95331.70
2018-07-09T20:46:26.148Z,95335.07
2018-07-09T20:48:54.475Z,95328.13
2018-07-09T20:51:22.697Z,95321.67
2018-07-09T20:53:51.016Z,95328.36
2018-07-09T20:56:19.387Z,95328.20
2018-07-09T20:58:47.657Z,95324.51
2018-07-09T21:01:15.929Z,95328.47
2018-07-09T21:03:44.123Z,95326.44
2018-07-09T21:06:12.306Z,95327.01
2018-07-09T21:08:40.529Z,95318.80
2018-07-09T21:11:08.720Z,95319.17
2018-07-09T21:13:36.966Z,95315.73
2018-07-09T21:16:05.545Z,95322.20
2018-07-09T21:18:33.532Z,95305.50
2018-07-09T21:21:01.806Z,95309.88
2018-07-09T21:23:30.022Z,95304.52
2018-07-09T21:25:58.213Z,95299.24
2018-07-09T21:28:26.463Z,95302.66
2018-07-09T21:30:54.708Z,95306.87
2018-07-09T21:33:22.885Z,95313.16
2018-07-09T21:35:51.078Z,95306.37
2018-07-09T21:38:19.273Z,95304.63
2018-07-09T21:40:47.484Z,95305.03
2018-07-09T21:43:15.782Z,95306.48
2018-07-09T21:45:43.957Z,95305.33
2018-07-09T21:48:12.138Z,95305.68
2018-07-09T21:50:40.374Z,95302.14
2018-07-09T21:53:08.616Z,95305.80
2018-07-09T21:55:36.831Z,95296.25
2018-07-09T21:58:05.050Z,95297.70
2018-07-09T22:00:33.322Z,95302.23
2018-07-09T22:03:01.550Z,95294.81
2018-07-09T22:05:29.724Z,95286.86
2018-07-09T22:07:57.980Z,95291.36
2018-07-09T22:10:26.170Z,95288.70
2018-07-09T22:12:54.406Z,95293.86
2018-07-09T22:15:22.577Z,95288.29
2018-07-09T22:17:52.742Z,95283.44
2018-07-09T22:20:20.976Z,95286.02
2018-07-09T22:22:49.148Z,95285.78
2018-07-09T22:25:17.369Z,95280.30
2018-07-09T22:27:45.542Z,95282.00
2018-07-09T22:30:13.797Z,95283.31
2018-07-09T22:32:43.220Z,95280.67
2018-07-09T22:35:13.388Z,95277.25
2018-07-09T22:37:42.680Z,95279.09
2018-07-09T22:40:12.044Z,95276.64
2018-07-09T22:42:41.372Z,95275.67
2018-07-09T22:45:10.716Z,95276.33
2018-07-09T22:47:40.315Z,95275.98
2018-07-09T22:50:09.722Z,95263.37
2018-07-09T22:52:39.044Z,95264.02
2018-07-09T22:55:19.377Z,95265.95
2018-07-09T22:57:48.726Z,95260.52
2018-07-09T23:00:19.244Z,95262.28
2018-07-09T23:02:57.605Z,95258.23
2018-07-09T23:05:26.984Z,95260.43
2018-07-09T23:07:56.296Z,95262.99
2018-07-09T23:12:40.680Z,95259.63
2018-07-09T23:15:30.518Z,95254.23
2018-07-09T23:18:11.304Z,95254.72
2018-07-09T23:22:50.621Z,95249.49
2018-07-09T23:25:20.018Z,95245.34
2018-07-09T23:27:48.248Z,95236.11
2018-07-09T23:30:16.468Z,95234.87
2018-07-09T23:32:44.701Z,95225.98
2018-07-09T23:35:12.885Z,95221.33
2018-07-09T23:37:41.078Z,95220.33
2018-07-09T23:40:09.303Z,95209.34
2018-07-09T23:42:37.485Z,95210.97
2018-07-09T23:45:05.784Z,95213.40
2018-07-09T23:47:33.953Z,95207.16
2018-07-09T23:50:02.238Z,95205.30
2018-07-09T23:52:30.425Z,95200.73
2018-07-09T23:54:58.601Z,95211.70
2018-07-09T23:59:40.997Z,95209.14
